sensor_id;sensor_type;location;lat;lon;timestamp;temperature;humidity
13268;DHT22;6702;47.068;15.458;2022-11-21T00:01:36;5.90;99.90
13268;DHT22;6702;47.068;15.458;2022-11-21T00:04:39;5.90;99.90
13268;DHT22;6702;47.068;15.458;2022-11-21T00:07:43;5.90;99.90
13268;DHT22;6702;47.068;15.458;2022-11-21T00:10:47;5.90;99.90
13268;DHT22;6702;47.068;15.458;2022-11-21T00:13:51;5.90;99.90
13268;DHT22;6702;47.068;15.458;2022-11-21T00:16:54;5.80;99.90
13268;DHT22;6702;47.068;15.458;2022-11-21T00:19:58;5.80;99.90
13268;DHT22;6702;47.068;15.458;2022-11-21T00:23:01;5.90;99.90
13268;DHT22;6702;47.068;15.458;2022-11-21T00:26:05;5.80;99.90
13268;DHT22;6702;47.068;15.458;2022-11-21T00:29:10;5.80;99.90
13268;DHT22;6702;47.068;15.458;2022-11-21T00:32:13;5.80;99.90
13268;DHT22;6702;47.068;15.458;2022-11-21T00:35:16;5.80;99.90
13268;DHT22;6702;47.068;15.458;2022-11-21T00:38:20;5.80;99.90
13268;DHT22;6702;47.068;15.458;2022-11-21T00:41:25;5.80;99.90
13268;DHT22;6702;47.068;15.458;2022-11-21T00:44:29;5.60;99.90
13268;DHT22;6702;47.068;15.458;2022-11-21T00:47:32;5.60;99.90
13268;DHT22;6702;47.068;15.458;2022-11-21T00:50:35;5.60;99.90
13268;DHT22;6702;47.068;15.458;2022-11-21T00:53:39;5.60;99.90
13268;DHT22;6702;47.068;15.458;2022-11-21T00:56:42;5.50;99.90
13268;DHT22;6702;47.068;15.458;2022-11-21T00:59:46;5.40;99.90
13268;DHT22;6702;47.068;15.458;2022-11-21T01:02:49;5.40;99.90
13268;DHT22;6702;47.068;15.458;2022-11-21T01:05:52;5.30;99.90
13268;DHT22;6702;47.068;15.458;2022-11-21T01:08:55;5.30;99.90
13268;DHT22;6702;47.068;15.458;2022-11-21T01:11:59;5.20;99.90
13268;DHT22;6702;47.068;15.458;2022-11-21T01:15:04;5.10;99.90
13268;DHT22;6702;47.068;15.458;2022-11-21T01:18:07;5.10;99.90
13268;DHT22;6702;47.068;15.458;2022-11-21T01:21:13;5.10;99.90
13268;DHT22;6702;47.068;15.458;2022-11-21T01:24:16;5.10;99.90
13268;DHT22;6702;47.068;15.458;2022-11-21T01:27:19;5.10;99.90
13268;DHT22;6702;47.068;15.458;2022-11-21T01:30:24;5.10;99.90
13268;DHT22;6702;47.068;15.458;2022-11-21T01:33:27;5.00;99.90
13268;DHT22;6702;47.068;15.458;2022-11-21T01:36:32;5.00;99.90
13268;DHT22;6702;47.068;15.458;2022-11-21T01:39:35;4.90;99.90
13268;DHT22;6702;47.068;15.458;2022-11-21T01:42:55;4.80;99.90
13268;DHT22;6702;47.068;15.458;2022-11-21T01:46:04;4.70;99.90
13268;DHT22;6702;47.068;15.458;2022-11-21T01:49:11;4.60;99.90
13268;DHT22;6702;47.068;15.458;2022-11-21T01:52:18;4.50;99.90
13268;DHT22;6702;47.068;15.458;2022-11-21T01:55:24;4.50;99.90
13268;DHT22;6702;47.068;15.458;2022-11-21T01:58:28;4.50;99.90
13268;DHT22;6702;47.068;15.458;2022-11-21T02:01:34;4.40;99.90
13268;DHT22;6702;47.068;15.458;2022-11-21T02:04:40;4.40;99.90
13268;DHT22;6702;47.068;15.458;2022-11-21T02:07:46;4.40;99.90
13268;DHT22;6702;47.068;15.458;2022-11-21T02:10:58;4.40;99.90
13268;DHT22;6702;47.068;15.458;2022-11-21T02:14:03;4.40;99.90
13268;DHT22;6702;47.068;15.458;2022-11-21T02:17:09;4.50;99.90
13268;DHT22;6702;47.068;15.458;2022-11-21T02:20:14;4.60;99.90
13268;DHT22;6702;47.068;15.458;2022-11-21T02:23:22;4.60;99.90
13268;DHT22;6702;47.068;15.458;2022-11-21T02:26:29;4.60;99.90
13268;DHT22;6702;47.068;15.458;2022-11-21T02:29:32;4.70;99.90
13268;DHT22;6702;47.068;15.458;2022-11-21T02:32:37;4.70;99.90
13268;DHT22;6702;47.068;15.458;2022-11-21T02:35:42;4.70;99.90
13268;DHT22;6702;47.068;15.458;2022-11-21T02:38:46;4.80;99.90
13268;DHT22;6702;47.068;15.458;2022-11-21T02:41:56;4.80;99.90
13268;DHT22;6702;47.068;15.458;2022-11-21T02:45:05;5.00;99.90
13268;DHT22;6702;47.068;15.458;2022-11-21T02:48:11;5.00;99.90
13268;DHT22;6702;47.068;15.458;2022-11-21T02:51:14;5.00;99.90
13268;DHT22;6702;47.068;15.458;2022-11-21T02:54:17;5.00;99.90
13268;DHT22;6702;47.068;15.458;2022-11-21T02:57:22;5.00;99.90
13268;DHT22;6702;47.068;15.458;2022-11-21T03:00:25;5.10;99.90
13268;DHT22;6702;47.068;15.458;2022-11-21T03:03:28;5.10;99.90
13268;DHT22;6702;47.068;15.458;2022-11-21T03:06:31;5.20;99.90
13268;DHT22;6702;47.068;15.458;2022-11-21T03:09:34;5.20;99.90
13268;DHT22;6702;47.068;15.458;2022-11-21T03:12:40;5.30;99.90
13268;DHT22;6702;47.068;15.458;2022-11-21T03:15:43;5.30;99.90
13268;DHT22;6702;47.068;15.458;2022-11-21T03:18:46;5.30;99.90
13268;DHT22;6702;47.068;15.458;2022-11-21T03:21:49;5.20;99.90
13268;DHT22;6702;47.068;15.458;2022-11-21T03:24:52;5.20;99.90
13268;DHT22;6702;47.068;15.458;2022-11-21T03:27:57;5.20;99.90
13268;DHT22;6702;47.068;15.458;2022-11-21T03:31:00;5.00;99.90
13268;DHT22;6702;47.068;15.458;2022-11-21T03:34:03;4.90;99.90
13268;DHT22;6702;47.068;15.458;2022-11-21T03:37:06;4.70;99.90
13268;DHT22;6702;47.068;15.458;2022-11-21T03:40:10;4.70;99.90
13268;DHT22;6702;47.068;15.458;2022-11-21T03:43:15;4.50;99.90
13268;DHT22;6702;47.068;15.458;2022-11-21T03:46:18;4.60;99.90
13268;DHT22;6702;47.068;15.458;2022-11-21T03:49:21;4.40;99.90
13268;DHT22;6702;47.068;15.458;2022-11-21T03:52:24;4.20;99.90
13268;DHT22;6702;47.068;15.458;2022-11-21T03:55:27;4.20;99.90
13268;DHT22;6702;47.068;15.458;2022-11-21T03:58:32;4.20;99.90
13268;DHT22;6702;47.068;15.458;2022-11-21T04:01:35;4.20;99.90
13268;DHT22;6702;47.068;15.458;2022-11-21T04:04:38;4.20;99.90
13268;DHT22;6702;47.068;15.458;2022-11-21T04:07:41;4.20;99.90
13268;DHT22;6702;47.068;15.458;2022-11-21T04:10:46;4.00;99.90
13268;DHT22;6702;47.068;15.458;2022-11-21T04:13:51;4.10;99.90
13268;DHT22;6702;47.068;15.458;2022-11-21T04:16:54;4.10;99.90
13268;DHT22;6702;47.068;15.458;2022-11-21T04:19:57;4.10;99.90
13268;DHT22;6702;47.068;15.458;2022-11-21T04:23:00;4.10;99.90
13268;DHT22;6702;47.068;15.458;2022-11-21T04:26:03;4.10;99.90
13268;DHT22;6702;47.068;15.458;2022-11-21T04:29:08;3.90;99.90
13268;DHT22;6702;47.068;15.458;2022-11-21T04:32:11;3.80;99.90
13268;DHT22;6702;47.068;15.458;2022-11-21T04:35:14;3.80;99.90
13268;DHT22;6702;47.068;15.458;2022-11-21T04:38:17;3.90;99.90
13268;DHT22;6702;47.068;15.458;2022-11-21T04:41:20;4.00;99.90
13268;DHT22;6702;47.068;15.458;2022-11-21T04:44:25;4.10;99.90
13268;DHT22;6702;47.068;15.458;2022-11-21T04:47:29;4.10;99.90
13268;DHT22;6702;47.068;15.458;2022-11-21T04:50:32;4.20;99.90
13268;DHT22;6702;47.068;15.458;2022-11-21T04:53:35;4.10;99.90
13268;DHT22;6702;47.068;15.458;2022-11-21T04:56:43;4.10;99.90
13268;DHT22;6702;47.068;15.458;2022-11-21T04:59:48;4.20;99.90
13268;DHT22;6702;47.068;15.458;2022-11-21T05:02:51;4.20;99.90
13268;DHT22;6702;47.068;15.458;2022-11-21T05:05:54;4.10;99.90
13268;DHT22;6702;47.068;15.458;2022-11-21T05:08:57;4.10;99.90
13268;DHT22;6702;47.068;15.458;2022-11-21T05:12:00;4.10;99.90
13268;DHT22;6702;47.068;15.458;2022-11-21T05:15:22;4.20;99.90
13268;DHT22;6702;47.068;15.458;2022-11-21T05:18:26;4.20;99.90
13268;DHT22;6702;47.068;15.458;2022-11-21T05:21:29;4.10;99.90
13268;DHT22;6702;47.068;15.458;2022-11-21T05:24:32;4.10;99.90
13268;DHT22;6702;47.068;15.458;2022-11-21T05:27:35;4.20;99.90
13268;DHT22;6702;47.068;15.458;2022-11-21T05:30:39;4.20;99.90
13268;DHT22;6702;47.068;15.458;2022-11-21T05:33:43;4.20;99.90
13268;DHT22;6702;47.068;15.458;2022-11-21T05:36:46;4.20;99.90
13268;DHT22;6702;47.068;15.458;2022-11-21T05:39:49;4.20;99.90
13268;DHT22;6702;47.068;15.458;2022-11-21T05:42:52;4.20;99.90
13268;DHT22;6702;47.068;15.458;2022-11-21T05:46:15;4.20;99.90
13268;DHT22;6702;47.068;15.458;2022-11-21T05:49:19;4.20;99.90
13268;DHT22;6702;47.068;15.458;2022-11-21T05:52:22;4.20;99.90
13268;DHT22;6702;47.068;15.458;2022-11-21T05:55:25;4.20;99.90
13268;DHT22;6702;47.068;15.458;2022-11-21T05:58:28;4.20;99.90
13268;DHT22;6702;47.068;15.458;2022-11-21T06:01:33;4.10;99.90
13268;DHT22;6702;47.068;15.458;2022-11-21T06:04:56;4.10;99.90
13268;DHT22;6702;47.068;15.458;2022-11-21T06:07:59;4.10;99.90
13268;DHT22;6702;47.068;15.458;2022-11-21T06:11:03;4.10;99.90
13268;DHT22;6702;47.068;15.458;2022-11-21T06:14:06;4.00;99.90
13268;DHT22;6702;47.068;15.458;2022-11-21T06:17:11;4.10;99.90
13268;DHT22;6702;47.068;15.458;2022-11-21T06:20:14;4.10;99.90
13268;DHT22;6702;47.068;15.458;2022-11-21T06:23:17;4.10;99.90
13268;DHT22;6702;47.068;15.458;2022-11-21T06:26:22;4.10;99.90
13268;DHT22;6702;47.068;15.458;2022-11-21T06:29:26;4.10;99.90
13268;DHT22;6702;47.068;15.458;2022-11-21T06:32:35;4.00;99.90
13268;DHT22;6702;47.068;15.458;2022-11-21T06:35:39;4.00;99.90
13268;DHT22;6702;47.068;15.458;2022-11-21T06:38:42;4.00;99.90
13268;DHT22;6702;47.068;15.458;2022-11-21T06:41:46;4.10;99.90
13268;DHT22;6702;47.068;15.458;2022-11-21T06:44:52;4.20;99.90
13268;DHT22;6702;47.068;15.458;2022-11-21T06:47:59;4.20;99.90
13268;DHT22;6702;47.068;15.458;2022-11-21T06:51:03;4.40;99.90
13268;DHT22;6702;47.068;15.458;2022-11-21T06:54:07;4.50;99.90
13268;DHT22;6702;47.068;15.458;2022-11-21T06:57:17;4.50;99.90
13268;DHT22;6702;47.068;15.458;2022-11-21T07:00:20;4.50;99.90
13268;DHT22;6702;47.068;15.458;2022-11-21T07:03:26;4.50;99.90
13268;DHT22;6702;47.068;15.458;2022-11-21T07:06:30;4.50;99.90
13268;DHT22;6702;47.068;15.458;2022-11-21T07:09:33;4.50;99.90
13268;DHT22;6702;47.068;15.458;2022-11-21T07:12:36;4.30;99.90
13268;DHT22;6702;47.068;15.458;2022-11-21T07:16:00;4.20;99.90
13268;DHT22;6702;47.068;15.458;2022-11-21T07:19:05;4.30;99.90
13268;DHT22;6702;47.068;15.458;2022-11-21T07:22:08;4.50;99.90
13268;DHT22;6702;47.068;15.458;2022-11-21T07:25:11;4.60;99.90
13268;DHT22;6702;47.068;15.458;2022-11-21T07:28:15;4.70;99.90
13268;DHT22;6702;47.068;15.458;2022-11-21T07:31:18;4.70;99.90
13268;DHT22;6702;47.068;15.458;2022-11-21T07:34:22;4.70;99.90
13268;DHT22;6702;47.068;15.458;2022-11-21T07:37:25;4.70;99.90
13268;DHT22;6702;47.068;15.458;2022-11-21T07:40:29;4.80;99.90
13268;DHT22;6702;47.068;15.458;2022-11-21T07:43:34;4.80;99.90
13268;DHT22;6702;47.068;15.458;2022-11-21T07:46:37;4.60;99.90
13268;DHT22;6702;47.068;15.458;2022-11-21T07:49:42;4.50;99.90
13268;DHT22;6702;47.068;15.458;2022-11-21T07:52:45;4.60;99.90
13268;DHT22;6702;47.068;15.458;2022-11-21T07:55:48;4.60;99.90
13268;DHT22;6702;47.068;15.458;2022-11-21T07:58:51;4.70;99.90
13268;DHT22;6702;47.068;15.458;2022-11-21T08:01:54;4.90;99.90
13268;DHT22;6702;47.068;15.458;2022-11-21T08:04:59;5.10;99.90
13268;DHT22;6702;47.068;15.458;2022-11-21T08:08:02;5.40;99.90
13268;DHT22;6702;47.068;15.458;2022-11-21T08:11:06;5.30;99.90
13268;DHT22;6702;47.068;15.458;2022-11-21T08:14:09;5.50;99.90
13268;DHT22;6702;47.068;15.458;2022-11-21T08:17:13;5.80;99.90
13268;DHT22;6702;47.068;15.458;2022-11-21T08:20:17;5.90;99.90
13268;DHT22;6702;47.068;15.458;2022-11-21T08:23:20;6.10;99.90
13268;DHT22;6702;47.068;15.458;2022-11-21T08:26:24;6.40;99.90
13268;DHT22;6702;47.068;15.458;2022-11-21T08:29:27;6.70;99.90
13268;DHT22;6702;47.068;15.458;2022-11-21T08:32:30;7.00;99.90
13268;DHT22;6702;47.068;15.458;2022-11-21T08:35:36;7.20;99.90
13268;DHT22;6702;47.068;15.458;2022-11-21T08:38:39;7.50;99.90
13268;DHT22;6702;47.068;15.458;2022-11-21T08:41:42;7.70;99.90
13268;DHT22;6702;47.068;15.458;2022-11-21T08:45:04;7.90;99.90
13268;DHT22;6702;47.068;15.458;2022-11-21T08:48:10;8.20;99.90
13268;DHT22;6702;47.068;15.458;2022-11-21T08:51:15;8.50;99.90
13268;DHT22;6702;47.068;15.458;2022-11-21T08:54:20;8.80;99.90
13268;DHT22;6702;47.068;15.458;2022-11-21T08:57:24;9.10;99.90
13268;DHT22;6702;47.068;15.458;2022-11-21T09:00:27;9.20;99.90
13268;DHT22;6702;47.068;15.458;2022-11-21T09:03:31;9.10;99.90
13268;DHT22;6702;47.068;15.458;2022-11-21T09:06:36;8.80;99.90
13268;DHT22;6702;47.068;15.458;2022-11-21T09:09:39;8.70;99.90
13268;DHT22;6702;47.068;15.458;2022-11-21T09:12:42;8.50;99.90
13268;DHT22;6702;47.068;15.458;2022-11-21T09:15:46;8.60;99.90
13268;DHT22;6702;47.068;15.458;2022-11-21T09:19:06;8.80;99.90
13268;DHT22;6702;47.068;15.458;2022-11-21T09:22:11;9.00;99.90
13268;DHT22;6702;47.068;15.458;2022-11-21T09:25:14;9.30;99.90
13268;DHT22;6702;47.068;15.458;2022-11-21T09:28:17;9.60;99.90
13268;DHT22;6702;47.068;15.458;2022-11-21T09:31:20;9.50;99.90
13268;DHT22;6702;47.068;15.458;2022-11-21T09:34:23;9.40;99.90
13268;DHT22;6702;47.068;15.458;2022-11-21T09:37:28;9.40;99.90
13268;DHT22;6702;47.068;15.458;2022-11-21T09:40:33;8.90;99.90
13268;DHT22;6702;47.068;15.458;2022-11-21T09:43:44;8.80;99.90
13268;DHT22;6702;47.068;15.458;2022-11-21T09:46:59;8.70;99.90
13268;DHT22;6702;47.068;15.458;2022-11-21T09:50:18;8.50;99.90
13268;DHT22;6702;47.068;15.458;2022-11-21T09:53:27;8.50;99.90
13268;DHT22;6702;47.068;15.458;2022-11-21T09:56:35;8.50;99.90
13268;DHT22;6702;47.068;15.458;2022-11-21T09:59:40;8.80;99.90
13268;DHT22;6702;47.068;15.458;2022-11-21T10:02:45;9.10;99.90
13268;DHT22;6702;47.068;15.458;2022-11-21T10:05:51;9.30;99.90
13268;DHT22;6702;47.068;15.458;2022-11-21T10:09:02;9.60;99.90
13268;DHT22;6702;47.068;15.458;2022-11-21T10:12:13;9.80;99.90
13268;DHT22;6702;47.068;15.458;2022-11-21T10:15:48;10.50;99.90
13268;DHT22;6702;47.068;15.458;2022-11-21T10:19:17;12.60;99.10
13268;DHT22;6702;47.068;15.458;2022-11-21T10:22:37;16.70;92.40
13268;DHT22;6702;47.068;15.458;2022-11-21T10:25:47;19.20;72.40
13268;DHT22;6702;47.068;15.458;2022-11-21T10:28:56;18.40;67.10
13268;DHT22;6702;47.068;15.458;2022-11-21T10:32:12;17.40;66.80
13268;DHT22;6702;47.068;15.458;2022-11-21T10:35:21;16.60;68.60
13268;DHT22;6702;47.068;15.458;2022-11-21T10:38:26;15.90;68.70
13268;DHT22;6702;47.068;15.458;2022-11-21T10:41:39;15.30;70.90
13268;DHT22;6702;47.068;15.458;2022-11-21T10:44:44;14.80;73.40
13268;DHT22;6702;47.068;15.458;2022-11-21T10:48:07;14.40;74.90
13268;DHT22;6702;47.068;15.458;2022-11-21T10:51:21;14.00;76.10
13268;DHT22;6702;47.068;15.458;2022-11-21T10:54:28;13.60;78.30
13268;DHT22;6702;47.068;15.458;2022-11-21T10:57:39;13.30;79.90
13268;DHT22;6702;47.068;15.458;2022-11-21T11:00:55;13.50;82.10
13268;DHT22;6702;47.068;15.458;2022-11-21T11:04:15;13.80;80.90
13268;DHT22;6702;47.068;15.458;2022-11-21T11:07:38;14.90;79.30
13268;DHT22;6702;47.068;15.458;2022-11-21T11:10:43;18.10;71.10
13268;DHT22;6702;47.068;15.458;2022-11-21T11:13:57;20.20;61.20
13268;DHT22;6702;47.068;15.458;2022-11-21T11:17:01;20.20;59.40
13268;DHT22;6702;47.068;15.458;2022-11-21T11:20:27;19.80;57.40
13268;DHT22;6702;47.068;15.458;2022-11-21T11:23:30;20.10;58.70
13268;DHT22;6702;47.068;15.458;2022-11-21T11:26:33;24.40;52.30
13268;DHT22;6702;47.068;15.458;2022-11-21T11:29:52;27.40;43.40
13268;DHT22;6702;47.068;15.458;2022-11-21T11:32:55;30.00;35.60
13268;DHT22;6702;47.068;15.458;2022-11-21T11:36:13;31.70;31.30
13268;DHT22;6702;47.068;15.458;2022-11-21T11:39:24;33.10;28.20
13268;DHT22;6702;47.068;15.458;2022-11-21T11:42:47;34.80;25.50
13268;DHT22;6702;47.068;15.458;2022-11-21T11:49:51;35.30;23.60
13268;DHT22;6702;47.068;15.458;2022-11-21T11:53:18;35.20;22.80
13268;DHT22;6702;47.068;15.458;2022-11-21T11:56:25;35.80;22.20
13268;DHT22;6702;47.068;15.458;2022-11-21T11:59:32;36.50;21.60
13268;DHT22;6702;47.068;15.458;2022-11-21T12:02:47;37.20;20.70
13268;DHT22;6702;47.068;15.458;2022-11-21T12:05:58;37.80;19.90
13268;DHT22;6702;47.068;15.458;2022-11-21T12:09:16;36.30;20.00
13268;DHT22;6702;47.068;15.458;2022-11-21T12:12:30;33.50;21.80
13268;DHT22;6702;47.068;15.458;2022-11-21T12:15:39;32.20;22.70
13268;DHT22;6702;47.068;15.458;2022-11-21T12:18:57;29.90;25.10
13268;DHT22;6702;47.068;15.458;2022-11-21T12:22:02;29.20;26.10
13268;DHT22;6702;47.068;15.458;2022-11-21T12:25:10;30.30;25.40
13268;DHT22;6702;47.068;15.458;2022-11-21T12:28:20;31.30;25.10
13268;DHT22;6702;47.068;15.458;2022-11-21T12:31:29;33.20;23.40
13268;DHT22;6702;47.068;15.458;2022-11-21T12:34:51;34.00;22.30
13268;DHT22;6702;47.068;15.458;2022-11-21T12:38:04;33.90;22.70
13268;DHT22;6702;47.068;15.458;2022-11-21T12:41:17;34.50;21.60
13268;DHT22;6702;47.068;15.458;2022-11-21T12:44:52;32.40;22.90
13268;DHT22;6702;47.068;15.458;2022-11-21T12:48:17;32.30;23.20
13268;DHT22;6702;47.068;15.458;2022-11-21T12:52:07;32.80;22.80
13268;DHT22;6702;47.068;15.458;2022-11-21T12:55:35;33.40;22.70
13268;DHT22;6702;47.068;15.458;2022-11-21T12:58:41;34.40;22.00
13268;DHT22;6702;47.068;15.458;2022-11-21T13:01:52;34.90;21.70
13268;DHT22;6702;47.068;15.458;2022-11-21T13:05:03;35.10;21.30
13268;DHT22;6702;47.068;15.458;2022-11-21T13:08:12;35.00;21.40
13268;DHT22;6702;47.068;15.458;2022-11-21T13:11:29;35.00;21.30
13268;DHT22;6702;47.068;15.458;2022-11-21T13:15:00;34.70;21.30
13268;DHT22;6702;47.068;15.458;2022-11-21T13:18:16;34.10;21.70
13268;DHT22;6702;47.068;15.458;2022-11-21T13:21:40;31.80;23.20
13268;DHT22;6702;47.068;15.458;2022-11-21T13:24:57;29.80;25.00
13268;DHT22;6702;47.068;15.458;2022-11-21T13:31:41;25.20;29.90
13268;DHT22;6702;47.068;15.458;2022-11-21T13:34:44;24.90;31.00
13268;DHT22;6702;47.068;15.458;2022-11-21T13:38:01;25.80;30.70
13268;DHT22;6702;47.068;15.458;2022-11-21T13:41:06;27.40;29.00
13268;DHT22;6702;47.068;15.458;2022-11-21T13:44:37;28.50;28.10
13268;DHT22;6702;47.068;15.458;2022-11-21T13:51:53;28.80;27.70
13268;DHT22;6702;47.068;15.458;2022-11-21T13:55:12;28.10;28.40
13268;DHT22;6702;47.068;15.458;2022-11-21T13:58:29;27.60;28.70
13268;DHT22;6702;47.068;15.458;2022-11-21T14:01:54;26.20;30.00
13268;DHT22;6702;47.068;15.458;2022-11-21T14:05:13;23.80;33.30
13268;DHT22;6702;47.068;15.458;2022-11-21T14:08:21;22.50;35.40
13268;DHT22;6702;47.068;15.458;2022-11-21T14:11:32;20.70;37.80
13268;DHT22;6702;47.068;15.458;2022-11-21T14:14:43;18.90;41.00
13268;DHT22;6702;47.068;15.458;2022-11-21T14:17:49;17.40;44.10
13268;DHT22;6702;47.068;15.458;2022-11-21T14:20:54;16.50;46.40
13268;DHT22;6702;47.068;15.458;2022-11-21T14:24:01;15.70;48.50
13268;DHT22;6702;47.068;15.458;2022-11-21T14:30:34;14.20;53.10
13268;DHT22;6702;47.068;15.458;2022-11-21T14:33:38;13.10;56.80
13268;DHT22;6702;47.068;15.458;2022-11-21T14:36:42;12.50;59.30
13268;DHT22;6702;47.068;15.458;2022-11-21T14:39:45;12.20;62.90
13268;DHT22;6702;47.068;15.458;2022-11-21T14:42:57;11.90;68.30
13268;DHT22;6702;47.068;15.458;2022-11-21T14:46:03;11.50;72.70
13268;DHT22;6702;47.068;15.458;2022-11-21T14:49:20;11.20;77.80
13268;DHT22;6702;47.068;15.458;2022-11-21T14:52:26;11.00;81.10
13268;DHT22;6702;47.068;15.458;2022-11-21T14:55:31;10.80;84.40
13268;DHT22;6702;47.068;15.458;2022-11-21T14:58:34;10.50;87.00
13268;DHT22;6702;47.068;15.458;2022-11-21T15:01:39;10.40;88.50
13268;DHT22;6702;47.068;15.458;2022-11-21T15:04:50;10.40;90.00
13268;DHT22;6702;47.068;15.458;2022-11-21T15:07:54;10.40;90.80
13268;DHT22;6702;47.068;15.458;2022-11-21T15:11:21;10.40;92.20
13268;DHT22;6702;47.068;15.458;2022-11-21T15:14:29;10.30;93.40
13268;DHT22;6702;47.068;15.458;2022-11-21T15:17:36;10.20;94.60
13268;DHT22;6702;47.068;15.458;2022-11-21T15:21:01;10.00;95.80
13268;DHT22;6702;47.068;15.458;2022-11-21T15:24:15;10.00;96.60
13268;DHT22;6702;47.068;15.458;2022-11-21T15:27:28;9.90;97.90
13268;DHT22;6702;47.068;15.458;2022-11-21T15:30:32;9.80;98.40
13268;DHT22;6702;47.068;15.458;2022-11-21T15:33:56;9.80;98.70
13268;DHT22;6702;47.068;15.458;2022-11-21T15:37:19;9.90;99.00
13268;DHT22;6702;47.068;15.458;2022-11-21T15:40:24;9.90;99.10
13268;DHT22;6702;47.068;15.458;2022-11-21T15:43:41;9.90;99.20
13268;DHT22;6702;47.068;15.458;2022-11-21T15:46:45;9.90;99.30
13268;DHT22;6702;47.068;15.458;2022-11-21T15:49:49;9.80;99.30
13268;DHT22;6702;47.068;15.458;2022-11-21T15:52:52;9.80;99.40
13268;DHT22;6702;47.068;15.458;2022-11-21T15:55:56;9.80;99.50
13268;DHT22;6702;47.068;15.458;2022-11-21T15:58:59;9.70;99.60
13268;DHT22;6702;47.068;15.458;2022-11-21T16:02:03;9.70;99.70
13268;DHT22;6702;47.068;15.458;2022-11-21T16:05:10;9.60;99.90
13268;DHT22;6702;47.068;15.458;2022-11-21T16:08:14;9.50;99.90
13268;DHT22;6702;47.068;15.458;2022-11-21T16:11:22;9.50;99.90
13268;DHT22;6702;47.068;15.458;2022-11-21T16:14:25;9.40;99.90
13268;DHT22;6702;47.068;15.458;2022-11-21T16:17:28;9.40;99.90
13268;DHT22;6702;47.068;15.458;2022-11-21T16:20:33;9.30;99.90
13268;DHT22;6702;47.068;15.458;2022-11-21T16:23:37;9.20;99.90
13268;DHT22;6702;47.068;15.458;2022-11-21T16:26:41;9.20;99.90
13268;DHT22;6702;47.068;15.458;2022-11-21T16:29:44;9.10;99.90
13268;DHT22;6702;47.068;15.458;2022-11-21T16:32:47;9.10;99.90
13268;DHT22;6702;47.068;15.458;2022-11-21T16:35:53;9.00;99.90
13268;DHT22;6702;47.068;15.458;2022-11-21T16:38:58;8.90;99.90
13268;DHT22;6702;47.068;15.458;2022-11-21T16:42:11;8.80;99.90
13268;DHT22;6702;47.068;15.458;2022-11-21T16:45:14;8.80;99.90
13268;DHT22;6702;47.068;15.458;2022-11-21T16:48:18;8.70;99.90
13268;DHT22;6702;47.068;15.458;2022-11-21T16:51:23;8.60;99.90
13268;DHT22;6702;47.068;15.458;2022-11-21T16:54:28;8.50;99.90
13268;DHT22;6702;47.068;15.458;2022-11-21T16:57:32;8.40;99.90
13268;DHT22;6702;47.068;15.458;2022-11-21T17:00:37;8.40;99.90
13268;DHT22;6702;47.068;15.458;2022-11-21T17:03:43;8.30;99.90
13268;DHT22;6702;47.068;15.458;2022-11-21T17:06:51;8.20;99.90
13268;DHT22;6702;47.068;15.458;2022-11-21T17:09:55;8.20;99.90
13268;DHT22;6702;47.068;15.458;2022-11-21T17:13:01;8.10;99.90
13268;DHT22;6702;47.068;15.458;2022-11-21T17:16:04;8.10;99.90
13268;DHT22;6702;47.068;15.458;2022-11-21T17:19:12;8.00;99.90
13268;DHT22;6702;47.068;15.458;2022-11-21T17:22:19;8.00;99.90
13268;DHT22;6702;47.068;15.458;2022-11-21T17:25:25;7.90;99.90
13268;DHT22;6702;47.068;15.458;2022-11-21T17:28:30;7.80;99.90
13268;DHT22;6702;47.068;15.458;2022-11-21T17:31:34;7.70;99.90
13268;DHT22;6702;47.068;15.458;2022-11-21T17:34:38;7.70;99.90
13268;DHT22;6702;47.068;15.458;2022-11-21T17:37:43;7.70;99.90
13268;DHT22;6702;47.068;15.458;2022-11-21T17:40:58;7.60;99.90
13268;DHT22;6702;47.068;15.458;2022-11-21T17:44:02;7.50;99.90
13268;DHT22;6702;47.068;15.458;2022-11-21T17:47:06;7.40;99.90
13268;DHT22;6702;47.068;15.458;2022-11-21T17:50:10;7.30;99.90
13268;DHT22;6702;47.068;15.458;2022-11-21T17:53:16;7.30;99.90
13268;DHT22;6702;47.068;15.458;2022-11-21T17:56:21;7.30;99.90
13268;DHT22;6702;47.068;15.458;2022-11-21T17:59:25;7.20;99.90
13268;DHT22;6702;47.068;15.458;2022-11-21T18:02:30;7.20;99.90
13268;DHT22;6702;47.068;15.458;2022-11-21T18:05:35;7.10;99.90
13268;DHT22;6702;47.068;15.458;2022-11-21T18:08:42;7.00;99.90
13268;DHT22;6702;47.068;15.458;2022-11-21T18:11:45;6.90;99.90
13268;DHT22;6702;47.068;15.458;2022-11-21T18:14:49;6.90;99.90
13268;DHT22;6702;47.068;15.458;2022-11-21T18:17:55;6.80;99.90
13268;DHT22;6702;47.068;15.458;2022-11-21T18:21:02;6.80;99.90
13268;DHT22;6702;47.068;15.458;2022-11-21T18:24:08;6.70;99.90
13268;DHT22;6702;47.068;15.458;2022-11-21T18:27:12;6.60;99.90
13268;DHT22;6702;47.068;15.458;2022-11-21T18:30:17;6.60;99.90
13268;DHT22;6702;47.068;15.458;2022-11-21T18:33:21;6.60;99.90
13268;DHT22;6702;47.068;15.458;2022-11-21T18:36:28;6.60;99.90
13268;DHT22;6702;47.068;15.458;2022-11-21T18:39:37;6.60;99.90
13268;DHT22;6702;47.068;15.458;2022-11-21T18:42:42;6.50;99.90
13268;DHT22;6702;47.068;15.458;2022-11-21T18:45:46;6.40;99.90
13268;DHT22;6702;47.068;15.458;2022-11-21T18:48:51;6.30;99.90
13268;DHT22;6702;47.068;15.458;2022-11-21T18:52:07;6.30;99.90
13268;DHT22;6702;47.068;15.458;2022-11-21T18:55:15;6.30;99.90
13268;DHT22;6702;47.068;15.458;2022-11-21T18:58:20;6.30;99.90
13268;DHT22;6702;47.068;15.458;2022-11-21T19:01:26;6.30;99.90
13268;DHT22;6702;47.068;15.458;2022-11-21T19:04:32;6.30;99.90
13268;DHT22;6702;47.068;15.458;2022-11-21T19:07:36;6.20;99.90
13268;DHT22;6702;47.068;15.458;2022-11-21T19:10:45;6.30;99.90
13268;DHT22;6702;47.068;15.458;2022-11-21T19:13:49;6.20;99.90
13268;DHT22;6702;47.068;15.458;2022-11-21T19:16:53;6.20;99.90
13268;DHT22;6702;47.068;15.458;2022-11-21T19:20:03;6.10;99.90
13268;DHT22;6702;47.068;15.458;2022-11-21T19:23:07;6.10;99.90
13268;DHT22;6702;47.068;15.458;2022-11-21T19:26:14;6.00;99.90
13268;DHT22;6702;47.068;15.458;2022-11-21T19:29:19;6.00;99.90
13268;DHT22;6702;47.068;15.458;2022-11-21T19:32:24;5.90;99.90
13268;DHT22;6702;47.068;15.458;2022-11-21T19:35:28;5.90;99.90
13268;DHT22;6702;47.068;15.458;2022-11-21T19:38:33;6.10;99.90
13268;DHT22;6702;47.068;15.458;2022-11-21T19:41:43;6.20;99.90
13268;DHT22;6702;47.068;15.458;2022-11-21T19:44:47;6.20;99.90
13268;DHT22;6702;47.068;15.458;2022-11-21T19:47:52;6.30;99.90
13268;DHT22;6702;47.068;15.458;2022-11-21T19:51:01;6.40;99.90
13268;DHT22;6702;47.068;15.458;2022-11-21T19:54:07;6.50;99.90
13268;DHT22;6702;47.068;15.458;2022-11-21T19:57:14;6.60;99.90
13268;DHT22;6702;47.068;15.458;2022-11-21T20:00:19;6.60;99.90
13268;DHT22;6702;47.068;15.458;2022-11-21T20:03:24;6.60;99.90
13268;DHT22;6702;47.068;15.458;2022-11-21T20:06:30;6.60;99.90
13268;DHT22;6702;47.068;15.458;2022-11-21T20:09:34;6.60;99.90
13268;DHT22;6702;47.068;15.458;2022-11-21T20:12:42;6.60;99.90